Terminal Aerodrome Forecast
Issued by NWS Raleigh/Durham, NC

Home | Current Version | Previous Version | Text Only | Print | Product List | Glossary On
Versions: 1 2 3 4 5 6 7 8 9 10 11 12 13 14 15 16 17 18 19
000
FTUS42 KRAH 281725
TAFRDU
TAF
KRDU 281725Z 2818/2918 22007KT P6SM VCSH BKN040
     FM282200 24008KT P6SM VCTS SCT035CB BKN050
      TEMPO 2823/2903 33018G35KT 2SM TSRA SCT020 BKN030CB
     FM290600 24005KT P6SM OVC007
     FM291200 29008KT P6SM BKN018
     FM291500 33010G17KT P6SM BKN035=

USA.gov is the U.S. government's official web portal to all federal, state and local government web resources and services.